sensor_id;sensor_type;location;lat;lon;timestamp;temperature;humidity
8338;DHT22;4206;48.634;9.516;2023-12-28T00:00:39;0.20;99.90
8338;DHT22;4206;48.634;9.516;2023-12-28T00:03:06;0.20;99.90
8338;DHT22;4206;48.634;9.516;2023-12-28T00:05:33;0.10;99.90
8338;DHT22;4206;48.634;9.516;2023-12-28T00:08:01;0.20;99.90
8338;DHT22;4206;48.634;9.516;2023-12-28T00:10:28;0.20;99.90
8338;DHT22;4206;48.634;9.516;2023-12-28T00:12:55;0.30;99.90
8338;DHT22;4206;48.634;9.516;2023-12-28T00:15:22;0.30;99.90
8338;DHT22;4206;48.634;9.516;2023-12-28T00:17:49;0.20;99.90
8338;DHT22;4206;48.634;9.516;2023-12-28T00:20:16;0.20;99.90
8338;DHT22;4206;48.634;9.516;2023-12-28T00:22:43;0.10;99.90
8338;DHT22;4206;48.634;9.516;2023-12-28T00:25:10;0.10;99.90
8338;DHT22;4206;48.634;9.516;2023-12-28T00:27:37;0.10;99.90
8338;DHT22;4206;48.634;9.516;2023-12-28T00:30:05;0.10;99.90
8338;DHT22;4206;48.634;9.516;2023-12-28T00:32:33;0.10;99.90
8338;DHT22;4206;48.634;9.516;2023-12-28T00:34:59;0.10;99.90
8338;DHT22;4206;48.634;9.516;2023-12-28T00:37:26;0.10;99.90
8338;DHT22;4206;48.634;9.516;2023-12-28T00:39:53;0.10;99.90
8338;DHT22;4206;48.634;9.516;2023-12-28T00:42:20;0.10;99.90
8338;DHT22;4206;48.634;9.516;2023-12-28T00:44:47;0.20;99.90
8338;DHT22;4206;48.634;9.516;2023-12-28T00:47:14;0.20;99.90
8338;DHT22;4206;48.634;9.516;2023-12-28T00:49:41;0.20;99.90
8338;DHT22;4206;48.634;9.516;2023-12-28T00:52:08;0.20;99.90
8338;DHT22;4206;48.634;9.516;2023-12-28T00:54:36;0.20;99.90
8338;DHT22;4206;48.634;9.516;2023-12-28T00:57:04;0.20;99.90
8338;DHT22;4206;48.634;9.516;2023-12-28T00:59:31;0.30;99.90
8338;DHT22;4206;48.634;9.516;2023-12-28T01:01:58;0.40;99.90
8338;DHT22;4206;48.634;9.516;2023-12-28T01:04:25;0.50;99.90
8338;DHT22;4206;48.634;9.516;2023-12-28T01:06:52;0.40;99.90
8338;DHT22;4206;48.634;9.516;2023-12-28T01:09:19;0.40;99.90
8338;DHT22;4206;48.634;9.516;2023-12-28T01:11:47;0.30;99.90
8338;DHT22;4206;48.634;9.516;2023-12-28T01:14:14;0.20;99.90
8338;DHT22;4206;48.634;9.516;2023-12-28T01:16:41;0.20;99.90
8338;DHT22;4206;48.634;9.516;2023-12-28T01:19:10;0.20;99.90
8338;DHT22;4206;48.634;9.516;2023-12-28T01:21:38;0.20;99.90
8338;DHT22;4206;48.634;9.516;2023-12-28T01:24:05;0.20;99.90
8338;DHT22;4206;48.634;9.516;2023-12-28T01:26:32;0.20;99.90
8338;DHT22;4206;48.634;9.516;2023-12-28T01:28:59;0.20;99.90
8338;DHT22;4206;48.634;9.516;2023-12-28T01:31:29;0.20;99.90
8338;DHT22;4206;48.634;9.516;2023-12-28T01:33:56;0.20;99.90
8338;DHT22;4206;48.634;9.516;2023-12-28T01:36:23;0.20;99.90
8338;DHT22;4206;48.634;9.516;2023-12-28T01:38:50;0.20;99.90
8338;DHT22;4206;48.634;9.516;2023-12-28T01:41:16;0.20;99.90
8338;DHT22;4206;48.634;9.516;2023-12-28T01:43:43;0.20;99.90
8338;DHT22;4206;48.634;9.516;2023-12-28T01:46:15;0.30;99.90
8338;DHT22;4206;48.634;9.516;2023-12-28T01:48:45;0.20;99.90
8338;DHT22;4206;48.634;9.516;2023-12-28T01:51:14;0.20;99.90
8338;DHT22;4206;48.634;9.516;2023-12-28T01:53:43;0.20;99.90
8338;DHT22;4206;48.634;9.516;2023-12-28T01:56:11;0.10;99.90
8338;DHT22;4206;48.634;9.516;2023-12-28T01:58:40;0.10;99.90
8338;DHT22;4206;48.634;9.516;2023-12-28T02:01:09;0.00;99.90
8338;DHT22;4206;48.634;9.516;2023-12-28T02:03:36;0.00;99.90
8338;DHT22;4206;48.634;9.516;2023-12-28T02:06:05;0.00;99.90
8338;DHT22;4206;48.634;9.516;2023-12-28T02:08:33;0.00;99.90
8338;DHT22;4206;48.634;9.516;2023-12-28T02:11:00;0.00;99.90
8338;DHT22;4206;48.634;9.516;2023-12-28T02:13:27;0.00;99.90
8338;DHT22;4206;48.634;9.516;2023-12-28T02:16:01;0.00;99.90
8338;DHT22;4206;48.634;9.516;2023-12-28T02:18:34;0.10;99.90
8338;DHT22;4206;48.634;9.516;2023-12-28T02:21:04;0.10;99.90
8338;DHT22;4206;48.634;9.516;2023-12-28T02:23:33;0.10;99.90
8338;DHT22;4206;48.634;9.516;2023-12-28T02:26:00;0.10;99.90
8338;DHT22;4206;48.634;9.516;2023-12-28T02:28:27;0.10;99.90
8338;DHT22;4206;48.634;9.516;2023-12-28T02:30:54;0.10;99.90
8338;DHT22;4206;48.634;9.516;2023-12-28T02:33:29;0.10;99.90
8338;DHT22;4206;48.634;9.516;2023-12-28T02:36:01;0.00;99.90
8338;DHT22;4206;48.634;9.516;2023-12-28T02:38:29;0.00;99.90
8338;DHT22;4206;48.634;9.516;2023-12-28T02:40:57;0.00;99.90
8338;DHT22;4206;48.634;9.516;2023-12-28T02:43:25;-0.10;99.90
8338;DHT22;4206;48.634;9.516;2023-12-28T02:45:52;-0.10;99.90
8338;DHT22;4206;48.634;9.516;2023-12-28T02:48:19;-0.10;99.90
8338;DHT22;4206;48.634;9.516;2023-12-28T02:50:46;-0.10;99.90
8338;DHT22;4206;48.634;9.516;2023-12-28T02:53:13;0.00;99.90
8338;DHT22;4206;48.634;9.516;2023-12-28T02:55:40;0.00;99.90
8338;DHT22;4206;48.634;9.516;2023-12-28T02:58:07;0.00;99.90
8338;DHT22;4206;48.634;9.516;2023-12-28T03:00:34;0.00;99.90
8338;DHT22;4206;48.634;9.516;2023-12-28T03:03:01;-0.10;99.90
8338;DHT22;4206;48.634;9.516;2023-12-28T03:05:28;0.00;99.90
8338;DHT22;4206;48.634;9.516;2023-12-28T03:07:55;0.00;99.90
8338;DHT22;4206;48.634;9.516;2023-12-28T03:10:23;0.00;99.90
8338;DHT22;4206;48.634;9.516;2023-12-28T03:12:50;-0.10;99.90
8338;DHT22;4206;48.634;9.516;2023-12-28T03:15:17;-0.10;99.90
8338;DHT22;4206;48.634;9.516;2023-12-28T03:17:44;-0.20;99.90
8338;DHT22;4206;48.634;9.516;2023-12-28T03:20:11;-0.20;99.90
8338;DHT22;4206;48.634;9.516;2023-12-28T03:22:38;-0.20;99.90
8338;DHT22;4206;48.634;9.516;2023-12-28T03:25:05;-0.10;99.90
8338;DHT22;4206;48.634;9.516;2023-12-28T03:27:32;-0.10;99.90
8338;DHT22;4206;48.634;9.516;2023-12-28T03:29:59;0.00;99.90
8338;DHT22;4206;48.634;9.516;2023-12-28T03:32:26;0.10;99.90
8338;DHT22;4206;48.634;9.516;2023-12-28T03:34:53;0.10;99.90
8338;DHT22;4206;48.634;9.516;2023-12-28T03:37:20;0.20;99.90
8338;DHT22;4206;48.634;9.516;2023-12-28T03:39:47;0.20;99.90
8338;DHT22;4206;48.634;9.516;2023-12-28T03:42:14;0.20;99.90
8338;DHT22;4206;48.634;9.516;2023-12-28T03:44:41;0.30;99.90
8338;DHT22;4206;48.634;9.516;2023-12-28T03:47:08;0.30;99.90
8338;DHT22;4206;48.634;9.516;2023-12-28T03:49:35;0.40;99.90
8338;DHT22;4206;48.634;9.516;2023-12-28T03:52:02;0.30;99.90
8338;DHT22;4206;48.634;9.516;2023-12-28T03:54:29;0.30;99.90
8338;DHT22;4206;48.634;9.516;2023-12-28T03:56:56;0.30;99.90
8338;DHT22;4206;48.634;9.516;2023-12-28T03:59:24;0.30;99.90
8338;DHT22;4206;48.634;9.516;2023-12-28T04:01:50;0.30;99.90
8338;DHT22;4206;48.634;9.516;2023-12-28T04:04:17;0.30;99.90
8338;DHT22;4206;48.634;9.516;2023-12-28T04:06:45;0.40;99.90
8338;DHT22;4206;48.634;9.516;2023-12-28T04:09:12;0.50;99.90
8338;DHT22;4206;48.634;9.516;2023-12-28T04:11:39;0.60;99.90
8338;DHT22;4206;48.634;9.516;2023-12-28T04:14:06;0.70;99.90
8338;DHT22;4206;48.634;9.516;2023-12-28T04:16:33;0.80;99.90
8338;DHT22;4206;48.634;9.516;2023-12-28T04:19:00;0.90;99.90
8338;DHT22;4206;48.634;9.516;2023-12-28T04:21:27;0.90;99.90
8338;DHT22;4206;48.634;9.516;2023-12-28T04:23:54;1.00;99.90
8338;DHT22;4206;48.634;9.516;2023-12-28T04:26:21;1.00;99.90
8338;DHT22;4206;48.634;9.516;2023-12-28T04:28:47;1.00;99.90
8338;DHT22;4206;48.634;9.516;2023-12-28T04:31:14;0.90;99.90
8338;DHT22;4206;48.634;9.516;2023-12-28T04:33:41;0.90;99.90
8338;DHT22;4206;48.634;9.516;2023-12-28T04:36:08;0.90;99.90
8338;DHT22;4206;48.634;9.516;2023-12-28T04:38:35;1.00;99.90
8338;DHT22;4206;48.634;9.516;2023-12-28T04:41:03;1.00;99.90
8338;DHT22;4206;48.634;9.516;2023-12-28T04:43:30;1.00;99.90
8338;DHT22;4206;48.634;9.516;2023-12-28T04:45:57;1.00;99.90
8338;DHT22;4206;48.634;9.516;2023-12-28T04:48:24;1.00;99.90
8338;DHT22;4206;48.634;9.516;2023-12-28T04:50:52;1.00;99.90
8338;DHT22;4206;48.634;9.516;2023-12-28T04:53:20;1.00;99.90
8338;DHT22;4206;48.634;9.516;2023-12-28T04:55:47;1.10;99.90
8338;DHT22;4206;48.634;9.516;2023-12-28T04:58:14;1.10;99.90
8338;DHT22;4206;48.634;9.516;2023-12-28T05:00:41;1.20;99.90
8338;DHT22;4206;48.634;9.516;2023-12-28T05:03:08;1.20;99.90
8338;DHT22;4206;48.634;9.516;2023-12-28T05:05:35;1.30;99.90
8338;DHT22;4206;48.634;9.516;2023-12-28T05:08:03;1.40;99.90
8338;DHT22;4206;48.634;9.516;2023-12-28T05:10:30;1.50;99.90
8338;DHT22;4206;48.634;9.516;2023-12-28T05:12:57;1.70;99.90
8338;DHT22;4206;48.634;9.516;2023-12-28T05:15:28;1.90;99.90
8338;DHT22;4206;48.634;9.516;2023-12-28T05:17:56;2.20;99.90
8338;DHT22;4206;48.634;9.516;2023-12-28T05:20:24;2.90;99.90
8338;DHT22;4206;48.634;9.516;2023-12-28T05:22:51;3.60;99.90
8338;DHT22;4206;48.634;9.516;2023-12-28T05:25:18;4.10;99.90
8338;DHT22;4206;48.634;9.516;2023-12-28T05:27:44;4.40;99.90
8338;DHT22;4206;48.634;9.516;2023-12-28T05:30:11;4.80;99.90
8338;DHT22;4206;48.634;9.516;2023-12-28T05:32:39;5.40;99.90
8338;DHT22;4206;48.634;9.516;2023-12-28T05:40:39;6.40;99.90
8338;DHT22;4206;48.634;9.516;2023-12-28T05:43:06;6.40;99.90
8338;DHT22;4206;48.634;9.516;2023-12-28T05:45:33;6.40;99.90
8338;DHT22;4206;48.634;9.516;2023-12-28T05:48:00;6.50;99.90
8338;DHT22;4206;48.634;9.516;2023-12-28T05:50:27;6.40;99.90
8338;DHT22;4206;48.634;9.516;2023-12-28T05:52:54;6.40;99.90
8338;DHT22;4206;48.634;9.516;2023-12-28T05:55:21;6.20;99.90
8338;DHT22;4206;48.634;9.516;2023-12-28T05:57:49;6.10;99.90
8338;DHT22;4206;48.634;9.516;2023-12-28T06:00:16;6.10;99.90
8338;DHT22;4206;48.634;9.516;2023-12-28T06:02:43;6.00;99.90
8338;DHT22;4206;48.634;9.516;2023-12-28T06:05:10;6.00;99.90
8338;DHT22;4206;48.634;9.516;2023-12-28T06:07:39;6.00;99.90
8338;DHT22;4206;48.634;9.516;2023-12-28T06:10:15;6.10;99.90
8338;DHT22;4206;48.634;9.516;2023-12-28T06:12:42;6.20;99.90
8338;DHT22;4206;48.634;9.516;2023-12-28T06:15:09;6.20;99.90
8338;DHT22;4206;48.634;9.516;2023-12-28T06:17:36;6.10;99.90
8338;DHT22;4206;48.634;9.516;2023-12-28T06:20:03;6.10;99.90
8338;DHT22;4206;48.634;9.516;2023-12-28T06:22:31;6.00;99.90
8338;DHT22;4206;48.634;9.516;2023-12-28T06:24:58;6.00;99.90
8338;DHT22;4206;48.634;9.516;2023-12-28T06:27:25;5.90;99.90
8338;DHT22;4206;48.634;9.516;2023-12-28T06:29:52;5.90;99.90
8338;DHT22;4206;48.634;9.516;2023-12-28T06:32:19;6.00;99.90
8338;DHT22;4206;48.634;9.516;2023-12-28T06:34:50;6.00;99.90
8338;DHT22;4206;48.634;9.516;2023-12-28T06:37:17;5.80;99.90
8338;DHT22;4206;48.634;9.516;2023-12-28T06:39:46;5.90;99.90
8338;DHT22;4206;48.634;9.516;2023-12-28T06:42:14;6.00;99.90
8338;DHT22;4206;48.634;9.516;2023-12-28T06:44:41;6.00;99.90
8338;DHT22;4206;48.634;9.516;2023-12-28T06:47:13;5.90;99.90
8338;DHT22;4206;48.634;9.516;2023-12-28T06:49:40;5.90;99.90
8338;DHT22;4206;48.634;9.516;2023-12-28T06:52:07;5.80;99.90
8338;DHT22;4206;48.634;9.516;2023-12-28T06:54:34;5.70;99.90
8338;DHT22;4206;48.634;9.516;2023-12-28T07:07:45;5.70;99.90
8338;DHT22;4206;48.634;9.516;2023-12-28T07:12:51;5.60;99.90
8338;DHT22;4206;48.634;9.516;2023-12-28T07:15:18;5.60;99.90
8338;DHT22;4206;48.634;9.516;2023-12-28T07:17:47;5.80;99.90
8338;DHT22;4206;48.634;9.516;2023-12-28T07:20:20;5.80;99.90
8338;DHT22;4206;48.634;9.516;2023-12-28T07:22:49;5.70;99.90
8338;DHT22;4206;48.634;9.516;2023-12-28T07:25:18;5.80;99.90
8338;DHT22;4206;48.634;9.516;2023-12-28T07:27:45;5.70;99.90
8338;DHT22;4206;48.634;9.516;2023-12-28T07:30:13;5.70;99.90
8338;DHT22;4206;48.634;9.516;2023-12-28T07:32:41;5.90;99.90
8338;DHT22;4206;48.634;9.516;2023-12-28T07:35:08;5.90;99.90
8338;DHT22;4206;48.634;9.516;2023-12-28T07:37:35;6.00;99.90
8338;DHT22;4206;48.634;9.516;2023-12-28T07:40:03;6.00;99.90
8338;DHT22;4206;48.634;9.516;2023-12-28T07:42:30;6.20;99.90
8338;DHT22;4206;48.634;9.516;2023-12-28T07:44:57;6.20;99.90
8338;DHT22;4206;48.634;9.516;2023-12-28T07:47:24;6.30;99.90
8338;DHT22;4206;48.634;9.516;2023-12-28T07:49:51;6.30;99.90
8338;DHT22;4206;48.634;9.516;2023-12-28T07:52:18;6.30;99.90
8338;DHT22;4206;48.634;9.516;2023-12-28T07:54:45;6.40;99.90
8338;DHT22;4206;48.634;9.516;2023-12-28T07:57:12;6.50;99.90
8338;DHT22;4206;48.634;9.516;2023-12-28T07:59:38;6.60;99.90
8338;DHT22;4206;48.634;9.516;2023-12-28T08:02:05;6.70;99.90
8338;DHT22;4206;48.634;9.516;2023-12-28T08:04:32;6.70;99.90
8338;DHT22;4206;48.634;9.516;2023-12-28T08:06:59;6.70;99.90
8338;DHT22;4206;48.634;9.516;2023-12-28T08:09:26;6.70;99.90
8338;DHT22;4206;48.634;9.516;2023-12-28T08:11:55;6.70;99.90
8338;DHT22;4206;48.634;9.516;2023-12-28T08:14:22;6.70;99.90
8338;DHT22;4206;48.634;9.516;2023-12-28T08:16:49;6.80;99.90
8338;DHT22;4206;48.634;9.516;2023-12-28T08:19:19;6.80;99.90
8338;DHT22;4206;48.634;9.516;2023-12-28T08:21:49;6.80;99.90
8338;DHT22;4206;48.634;9.516;2023-12-28T08:24:16;6.80;99.90
8338;DHT22;4206;48.634;9.516;2023-12-28T08:26:43;6.80;99.90
8338;DHT22;4206;48.634;9.516;2023-12-28T08:29:10;6.90;99.90
8338;DHT22;4206;48.634;9.516;2023-12-28T08:31:38;6.80;99.90
8338;DHT22;4206;48.634;9.516;2023-12-28T08:34:12;6.90;99.90
8338;DHT22;4206;48.634;9.516;2023-12-28T08:36:40;6.90;99.90
8338;DHT22;4206;48.634;9.516;2023-12-28T08:39:08;6.90;99.90
8338;DHT22;4206;48.634;9.516;2023-12-28T08:41:35;6.90;99.90
8338;DHT22;4206;48.634;9.516;2023-12-28T08:44:02;6.90;99.90
8338;DHT22;4206;48.634;9.516;2023-12-28T08:46:32;6.90;99.90
8338;DHT22;4206;48.634;9.516;2023-12-28T08:49:02;7.00;99.90
8338;DHT22;4206;48.634;9.516;2023-12-28T08:51:29;7.00;99.90
8338;DHT22;4206;48.634;9.516;2023-12-28T08:53:57;7.00;99.90
8338;DHT22;4206;48.634;9.516;2023-12-28T08:56:24;7.10;99.90
8338;DHT22;4206;48.634;9.516;2023-12-28T08:58:51;7.20;99.90
8338;DHT22;4206;48.634;9.516;2023-12-28T09:01:23;7.20;99.90
8338;DHT22;4206;48.634;9.516;2023-12-28T09:03:53;7.20;99.90
8338;DHT22;4206;48.634;9.516;2023-12-28T09:06:21;7.20;99.90
8338;DHT22;4206;48.634;9.516;2023-12-28T09:08:50;7.30;99.90
8338;DHT22;4206;48.634;9.516;2023-12-28T09:11:18;7.30;99.90
8338;DHT22;4206;48.634;9.516;2023-12-28T09:13:48;7.40;99.90
8338;DHT22;4206;48.634;9.516;2023-12-28T09:16:15;7.40;99.90
8338;DHT22;4206;48.634;9.516;2023-12-28T09:18:42;7.40;99.90
8338;DHT22;4206;48.634;9.516;2023-12-28T09:21:10;7.50;99.90
8338;DHT22;4206;48.634;9.516;2023-12-28T09:23:38;7.50;99.90
8338;DHT22;4206;48.634;9.516;2023-12-28T09:26:05;7.60;99.90
8338;DHT22;4206;48.634;9.516;2023-12-28T09:28:33;7.70;99.90
8338;DHT22;4206;48.634;9.516;2023-12-28T09:31:02;7.70;99.90
8338;DHT22;4206;48.634;9.516;2023-12-28T09:33:30;7.80;99.90
8338;DHT22;4206;48.634;9.516;2023-12-28T09:35:57;7.80;99.90
8338;DHT22;4206;48.634;9.516;2023-12-28T09:38:24;7.70;99.90
8338;DHT22;4206;48.634;9.516;2023-12-28T09:40:54;8.00;99.90
8338;DHT22;4206;48.634;9.516;2023-12-28T09:43:24;8.00;99.90
8338;DHT22;4206;48.634;9.516;2023-12-28T09:45:52;8.10;99.90
8338;DHT22;4206;48.634;9.516;2023-12-28T09:48:21;8.10;99.90
8338;DHT22;4206;48.634;9.516;2023-12-28T09:50:51;8.10;99.90
8338;DHT22;4206;48.634;9.516;2023-12-28T09:53:22;8.20;99.90
8338;DHT22;4206;48.634;9.516;2023-12-28T09:55:52;8.20;99.90
8338;DHT22;4206;48.634;9.516;2023-12-28T09:58:20;8.20;99.90
8338;DHT22;4206;48.634;9.516;2023-12-28T10:00:49;8.30;99.90
8338;DHT22;4206;48.634;9.516;2023-12-28T10:03:17;8.30;99.90
8338;DHT22;4206;48.634;9.516;2023-12-28T10:05:46;8.40;99.90
8338;DHT22;4206;48.634;9.516;2023-12-28T10:08:17;8.30;99.90
8338;DHT22;4206;48.634;9.516;2023-12-28T10:10:47;8.50;99.90
8338;DHT22;4206;48.634;9.516;2023-12-28T10:13:18;8.50;99.90
8338;DHT22;4206;48.634;9.516;2023-12-28T10:15:45;8.50;99.90
8338;DHT22;4206;48.634;9.516;2023-12-28T10:18:12;8.60;99.90
8338;DHT22;4206;48.634;9.516;2023-12-28T10:20:39;8.70;99.90
8338;DHT22;4206;48.634;9.516;2023-12-28T10:23:06;8.70;99.90
8338;DHT22;4206;48.634;9.516;2023-12-28T10:25:36;8.80;99.90
8338;DHT22;4206;48.634;9.516;2023-12-28T10:28:04;8.90;99.90
8338;DHT22;4206;48.634;9.516;2023-12-28T10:30:33;9.00;99.90
8338;DHT22;4206;48.634;9.516;2023-12-28T10:33:00;9.00;99.90
8338;DHT22;4206;48.634;9.516;2023-12-28T10:35:29;9.10;99.90
8338;DHT22;4206;48.634;9.516;2023-12-28T10:38:00;9.10;99.90
8338;DHT22;4206;48.634;9.516;2023-12-28T10:40:27;9.20;99.90
8338;DHT22;4206;48.634;9.516;2023-12-28T10:42:58;9.20;99.90
8338;DHT22;4206;48.634;9.516;2023-12-28T10:45:32;9.30;99.90
8338;DHT22;4206;48.634;9.516;2023-12-28T10:48:10;9.40;99.90
8338;DHT22;4206;48.634;9.516;2023-12-28T10:50:40;9.60;99.90
8338;DHT22;4206;48.634;9.516;2023-12-28T10:55:52;9.70;99.90
8338;DHT22;4206;48.634;9.516;2023-12-28T10:58:30;9.70;99.90
8338;DHT22;4206;48.634;9.516;2023-12-28T11:01:05;10.00;99.90
8338;DHT22;4206;48.634;9.516;2023-12-28T11:03:34;10.10;99.90
8338;DHT22;4206;48.634;9.516;2023-12-28T11:08:50;10.10;99.90
8338;DHT22;4206;48.634;9.516;2023-12-28T11:14:07;10.50;99.90
8338;DHT22;4206;48.634;9.516;2023-12-28T11:16:37;10.60;99.90
8338;DHT22;4206;48.634;9.516;2023-12-28T11:19:06;10.80;99.90
8338;DHT22;4206;48.634;9.516;2023-12-28T11:21:34;11.00;99.90
8338;DHT22;4206;48.634;9.516;2023-12-28T11:24:02;11.10;99.90
8338;DHT22;4206;48.634;9.516;2023-12-28T11:26:29;11.10;99.90
8338;DHT22;4206;48.634;9.516;2023-12-28T11:29:04;11.00;99.90
8338;DHT22;4206;48.634;9.516;2023-12-28T11:31:33;11.30;99.90
8338;DHT22;4206;48.634;9.516;2023-12-28T11:34:04;11.50;99.90
8338;DHT22;4206;48.634;9.516;2023-12-28T11:36:38;11.90;99.90
8338;DHT22;4206;48.634;9.516;2023-12-28T11:39:07;11.90;99.90
8338;DHT22;4206;48.634;9.516;2023-12-28T11:44:13;12.40;99.90
8338;DHT22;4206;48.634;9.516;2023-12-28T11:49:28;12.40;99.90
8338;DHT22;4206;48.634;9.516;2023-12-28T11:51:57;12.30;99.90
8338;DHT22;4206;48.634;9.516;2023-12-28T11:54:27;12.20;99.90
8338;DHT22;4206;48.634;9.516;2023-12-28T11:56:55;12.20;99.90
8338;DHT22;4206;48.634;9.516;2023-12-28T11:59:22;12.20;99.90
8338;DHT22;4206;48.634;9.516;2023-12-28T12:01:51;12.30;99.90
8338;DHT22;4206;48.634;9.516;2023-12-28T12:04:19;12.10;99.90
8338;DHT22;4206;48.634;9.516;2023-12-28T12:06:52;12.00;99.90
8338;DHT22;4206;48.634;9.516;2023-12-28T12:09:23;11.90;99.90
8338;DHT22;4206;48.634;9.516;2023-12-28T12:11:52;11.90;99.90
8338;DHT22;4206;48.634;9.516;2023-12-28T12:14:19;11.80;99.90
8338;DHT22;4206;48.634;9.516;2023-12-28T12:27:48;11.70;99.90
8338;DHT22;4206;48.634;9.516;2023-12-28T12:30:15;11.80;99.90
8338;DHT22;4206;48.634;9.516;2023-12-28T12:32:42;11.80;99.90
8338;DHT22;4206;48.634;9.516;2023-12-28T12:35:11;11.70;99.90
8338;DHT22;4206;48.634;9.516;2023-12-28T12:37:38;11.70;99.90
8338;DHT22;4206;48.634;9.516;2023-12-28T12:45:29;11.30;99.90
8338;DHT22;4206;48.634;9.516;2023-12-28T12:47:57;11.30;99.90
8338;DHT22;4206;48.634;9.516;2023-12-28T12:50:25;11.20;99.90
8338;DHT22;4206;48.634;9.516;2023-12-28T12:52:52;11.10;99.90
8338;DHT22;4206;48.634;9.516;2023-12-28T12:55:19;11.00;99.90
8338;DHT22;4206;48.634;9.516;2023-12-28T12:57:46;11.00;99.90
8338;DHT22;4206;48.634;9.516;2023-12-28T13:00:13;10.90;99.90
8338;DHT22;4206;48.634;9.516;2023-12-28T13:02:40;10.90;99.90
8338;DHT22;4206;48.634;9.516;2023-12-28T13:05:07;10.80;99.90
8338;DHT22;4206;48.634;9.516;2023-12-28T13:07:39;10.90;99.90
8338;DHT22;4206;48.634;9.516;2023-12-28T13:10:06;10.80;99.90
8338;DHT22;4206;48.634;9.516;2023-12-28T13:12:33;10.80;99.90
8338;DHT22;4206;48.634;9.516;2023-12-28T13:20:13;10.70;99.90
8338;DHT22;4206;48.634;9.516;2023-12-28T13:22:40;10.70;99.90
8338;DHT22;4206;48.634;9.516;2023-12-28T13:25:07;10.70;99.90
8338;DHT22;4206;48.634;9.516;2023-12-28T13:27:34;11.00;99.90
8338;DHT22;4206;48.634;9.516;2023-12-28T13:30:02;10.80;99.90
8338;DHT22;4206;48.634;9.516;2023-12-28T13:32:29;10.70;99.90
8338;DHT22;4206;48.634;9.516;2023-12-28T13:34:55;10.70;99.90
8338;DHT22;4206;48.634;9.516;2023-12-28T13:37:27;10.60;99.90
8338;DHT22;4206;48.634;9.516;2023-12-28T13:39:55;10.60;99.90
8338;DHT22;4206;48.634;9.516;2023-12-28T13:42:22;10.50;99.90
8338;DHT22;4206;48.634;9.516;2023-12-28T13:44:49;10.50;99.90
8338;DHT22;4206;48.634;9.516;2023-12-28T13:47:16;10.60;99.90
8338;DHT22;4206;48.634;9.516;2023-12-28T13:49:43;10.60;99.90
8338;DHT22;4206;48.634;9.516;2023-12-28T13:52:10;10.50;99.90
8338;DHT22;4206;48.634;9.516;2023-12-28T13:54:37;10.50;99.90
8338;DHT22;4206;48.634;9.516;2023-12-28T13:57:04;10.60;99.90
8338;DHT22;4206;48.634;9.516;2023-12-28T13:59:31;10.40;99.90
8338;DHT22;4206;48.634;9.516;2023-12-28T14:01:58;10.30;99.90
8338;DHT22;4206;48.634;9.516;2023-12-28T14:04:26;10.20;99.90
8338;DHT22;4206;48.634;9.516;2023-12-28T14:06:53;10.10;99.90
8338;DHT22;4206;48.634;9.516;2023-12-28T14:09:20;10.00;99.90
8338;DHT22;4206;48.634;9.516;2023-12-28T14:11:48;9.90;99.90
8338;DHT22;4206;48.634;9.516;2023-12-28T14:14:15;9.80;99.90
8338;DHT22;4206;48.634;9.516;2023-12-28T14:16:42;9.80;99.90
8338;DHT22;4206;48.634;9.516;2023-12-28T14:19:12;9.60;99.90
8338;DHT22;4206;48.634;9.516;2023-12-28T14:21:40;9.70;99.90
8338;DHT22;4206;48.634;9.516;2023-12-28T14:24:07;9.70;99.90
8338;DHT22;4206;48.634;9.516;2023-12-28T14:26:40;9.60;99.90
8338;DHT22;4206;48.634;9.516;2023-12-28T14:29:09;9.60;99.90
8338;DHT22;4206;48.634;9.516;2023-12-28T14:31:36;9.50;99.90
8338;DHT22;4206;48.634;9.516;2023-12-28T14:34:07;9.30;99.90
8338;DHT22;4206;48.634;9.516;2023-12-28T14:36:36;9.40;99.90
8338;DHT22;4206;48.634;9.516;2023-12-28T14:39:07;9.30;99.90
8338;DHT22;4206;48.634;9.516;2023-12-28T14:41:35;9.30;99.90
8338;DHT22;4206;48.634;9.516;2023-12-28T14:44:04;9.20;99.90
8338;DHT22;4206;48.634;9.516;2023-12-28T14:46:31;9.20;99.90
8338;DHT22;4206;48.634;9.516;2023-12-28T14:48:58;9.00;99.90
8338;DHT22;4206;48.634;9.516;2023-12-28T14:51:25;9.10;99.90
8338;DHT22;4206;48.634;9.516;2023-12-28T14:53:52;9.10;99.90
8338;DHT22;4206;48.634;9.516;2023-12-28T14:56:19;9.10;99.90
8338;DHT22;4206;48.634;9.516;2023-12-28T14:58:46;9.00;99.90
8338;DHT22;4206;48.634;9.516;2023-12-28T15:01:15;9.00;99.90
8338;DHT22;4206;48.634;9.516;2023-12-28T15:03:43;9.00;99.90
8338;DHT22;4206;48.634;9.516;2023-12-28T15:06:13;9.00;99.90
8338;DHT22;4206;48.634;9.516;2023-12-28T15:08:40;9.00;99.90
8338;DHT22;4206;48.634;9.516;2023-12-28T15:11:10;8.90;99.90
8338;DHT22;4206;48.634;9.516;2023-12-28T15:13:38;8.90;99.90
8338;DHT22;4206;48.634;9.516;2023-12-28T15:16:06;8.90;99.90
8338;DHT22;4206;48.634;9.516;2023-12-28T15:18:33;8.90;99.90
8338;DHT22;4206;48.634;9.516;2023-12-28T15:21:02;8.80;99.90
8338;DHT22;4206;48.634;9.516;2023-12-28T15:23:29;8.80;99.90
8338;DHT22;4206;48.634;9.516;2023-12-28T15:25:56;8.70;99.90
8338;DHT22;4206;48.634;9.516;2023-12-28T15:28:24;8.70;99.90
8338;DHT22;4206;48.634;9.516;2023-12-28T15:30:51;8.70;99.90
8338;DHT22;4206;48.634;9.516;2023-12-28T15:33:18;8.70;99.90
8338;DHT22;4206;48.634;9.516;2023-12-28T15:35:46;8.70;99.90
8338;DHT22;4206;48.634;9.516;2023-12-28T15:38:12;8.60;99.90
8338;DHT22;4206;48.634;9.516;2023-12-28T15:40:42;8.50;99.90
8338;DHT22;4206;48.634;9.516;2023-12-28T15:43:09;8.60;99.90
8338;DHT22;4206;48.634;9.516;2023-12-28T15:45:37;8.60;99.90
8338;DHT22;4206;48.634;9.516;2023-12-28T15:48:05;8.60;99.90
8338;DHT22;4206;48.634;9.516;2023-12-28T15:50:32;8.50;99.90
8338;DHT22;4206;48.634;9.516;2023-12-28T15:53:02;8.50;99.90
8338;DHT22;4206;48.634;9.516;2023-12-28T15:55:29;8.50;99.90
8338;DHT22;4206;48.634;9.516;2023-12-28T15:57:56;8.40;99.90
8338;DHT22;4206;48.634;9.516;2023-12-28T16:00:23;8.50;99.90
8338;DHT22;4206;48.634;9.516;2023-12-28T16:02:50;8.40;99.90
8338;DHT22;4206;48.634;9.516;2023-12-28T16:05:17;8.60;99.90
8338;DHT22;4206;48.634;9.516;2023-12-28T16:07:44;8.50;99.90
8338;DHT22;4206;48.634;9.516;2023-12-28T16:10:11;8.50;99.90
8338;DHT22;4206;48.634;9.516;2023-12-28T16:12:38;8.50;99.90
8338;DHT22;4206;48.634;9.516;2023-12-28T16:15:05;8.40;99.90
8338;DHT22;4206;48.634;9.516;2023-12-28T16:17:35;8.50;99.90
8338;DHT22;4206;48.634;9.516;2023-12-28T16:20:03;8.60;99.90
8338;DHT22;4206;48.634;9.516;2023-12-28T16:22:30;8.70;99.90
8338;DHT22;4206;48.634;9.516;2023-12-28T16:24:58;8.70;99.90
8338;DHT22;4206;48.634;9.516;2023-12-28T16:27:44;8.70;99.90
8338;DHT22;4206;48.634;9.516;2023-12-28T16:30:11;8.70;99.90
8338;DHT22;4206;48.634;9.516;2023-12-28T16:32:38;8.70;99.90
8338;DHT22;4206;48.634;9.516;2023-12-28T16:35:05;8.90;99.90
8338;DHT22;4206;48.634;9.516;2023-12-28T16:37:33;8.90;99.90
8338;DHT22;4206;48.634;9.516;2023-12-28T16:40:00;8.90;99.90
8338;DHT22;4206;48.634;9.516;2023-12-28T16:42:31;8.80;99.90
8338;DHT22;4206;48.634;9.516;2023-12-28T16:44:58;8.80;99.90
8338;DHT22;4206;48.634;9.516;2023-12-28T16:47:26;8.70;99.90
8338;DHT22;4206;48.634;9.516;2023-12-28T16:49:55;8.90;99.90
8338;DHT22;4206;48.634;9.516;2023-12-28T16:52:22;8.90;99.90
8338;DHT22;4206;48.634;9.516;2023-12-28T16:54:49;8.80;99.90
8338;DHT22;4206;48.634;9.516;2023-12-28T16:57:16;8.70;99.90
8338;DHT22;4206;48.634;9.516;2023-12-28T16:59:43;8.70;99.90
8338;DHT22;4206;48.634;9.516;2023-12-28T17:02:18;8.70;99.90
8338;DHT22;4206;48.634;9.516;2023-12-28T17:04:50;8.70;99.90
8338;DHT22;4206;48.634;9.516;2023-12-28T17:07:18;8.70;99.90
8338;DHT22;4206;48.634;9.516;2023-12-28T17:09:46;8.80;99.90
8338;DHT22;4206;48.634;9.516;2023-12-28T17:15:01;8.80;99.90